Time;durP1;ratioP1;P1;durP2;ratioP2;P2;SDS_P1;SDS_P2;PMS_P1;PMS_P2;Temp;Humidity;BMP_temperature;BMP_pressure;BME280_temperature;BME280_humidity;BME280_pressure;Samples;Min_cycle;Max_cycle;Signal;HPM_P1;HPM_P2
2021/08/09 00:01:09;;;;;;;5.00;1.50;;;;;;;15.29;74.46;101197.09;4995145;28;20029;-72
2021/08/09 00:03:35;;;;;;;3.80;1.80;;;;;;;15.26;74.58;101197.47;4979850;28;20114;-72
2021/08/09 00:06:00;;;;;;;3.13;1.63;;;;;;;15.25;74.49;101195.81;4976647;28;20446;-72
2021/08/09 00:08:25;;;;;;;7.38;1.83;;;;;;;15.22;74.59;101195.38;4998450;28;20048;-72
2021/08/09 00:10:52;;;;;;;3.63;1.55;;;;;;;15.18;74.72;101197.50;4995188;28;20428;-72
2021/08/09 00:13:17;;;;;;;6.85;2.00;;;;;;;15.18;74.68;101203.56;5000947;28;20034;-71
2021/08/09 00:15:43;;;;;;;4.00;1.50;;;;;;;15.14;74.52;101199.69;4999396;28;20396;-71
2021/08/09 00:18:08;;;;;;;4.25;1.73;;;;;;;15.13;74.78;101202.47;4997831;28;20067;-71
2021/08/09 00:20:34;;;;;;;3.38;1.48;;;;;;;15.08;74.83;101205.59;5010203;28;20411;-71
2021/08/09 00:23:00;;;;;;;3.08;1.30;;;;;;;15.05;74.94;101194.69;5012730;28;20025;-71
2021/08/09 00:25:25;;;;;;;3.15;1.95;;;;;;;15.04;74.67;101200.91;5012166;28;20036;-71
2021/08/09 00:27:51;;;;;;;7.07;1.85;;;;;;;14.99;74.86;101201.44;4994474;28;20049;-71
2021/08/09 00:30:16;;;;;;;2.53;1.40;;;;;;;14.97;74.81;101204.25;4999311;28;20042;-71
2021/08/09 00:32:42;;;;;;;3.88;1.90;;;;;;;14.89;75.16;101206.09;4986448;28;20068;-71
2021/08/09 00:35:09;;;;;;;4.28;1.85;;;;;;;14.87;75.24;101208.88;4994668;28;20033;-70
2021/08/09 00:37:35;;;;;;;5.43;1.52;;;;;;;14.85;75.22;101215.25;4993007;28;20113;-71
2021/08/09 00:40:02;;;;;;;5.28;1.90;;;;;;;14.81;75.15;101206.16;4973819;28;20053;-71
2021/08/09 00:42:28;;;;;;;5.15;1.70;;;;;;;14.79;74.97;101203.72;4998188;28;20495;-71
2021/08/09 00:44:54;;;;;;;4.50;1.80;;;;;;;14.73;75.25;101207.00;4986465;28;20038;-71
2021/08/09 00:47:20;;;;;;;8.35;2.55;;;;;;;14.69;75.27;101208.34;4992975;28;20080;-72
2021/08/09 00:49:45;;;;;;;5.38;1.50;;;;;;;14.61;75.50;101206.59;5009543;28;20084;-71
2021/08/09 00:52:11;;;;;;;4.13;1.63;;;;;;;14.57;75.81;101210.53;4983590;28;20034;-71
2021/08/09 00:54:38;;;;;;;6.32;1.95;;;;;;;14.56;75.76;101214.91;4987315;28;20026;-71
2021/08/09 00:57:06;;;;;;;7.40;1.73;;;;;;;14.52;75.92;101200.59;4998159;28;20085;-72
2021/08/09 00:59:35;;;;;;;5.90;1.83;;;;;;;14.46;76.03;101206.47;4993053;28;20033;-71
2021/08/09 01:02:00;;;;;;;5.18;1.98;;;;;;;14.38;76.23;101202.13;4978795;28;20109;-71
2021/08/09 01:04:27;;;;;;;6.13;1.63;;;;;;;14.34;76.44;101210.47;4980894;28;20125;-71
2021/08/09 01:06:53;;;;;;;4.00;1.80;;;;;;;14.33;76.60;101206.22;5002342;28;20036;-71
2021/08/09 01:09:26;;;;;;;4.65;1.73;;;;;;;14.31;76.54;101209.00;4998019;28;20160;-71
2021/08/09 01:12:18;;;;;;;7.22;2.10;;;;;;;14.35;76.37;101219.91;4984932;28;20068;-72
2021/08/09 01:15:04;;;;;;;4.47;1.92;;;;;;;14.24;76.68;101220.28;4998088;28;20079;-72
2021/08/09 01:17:41;;;;;;;4.68;1.90;;;;;;;14.21;77.01;101224.84;5010986;28;20033;-72
2021/08/09 01:20:15;;;;;;;8.73;2.03;;;;;;;14.17;77.08;101222.78;4999741;28;20112;-71
2021/08/09 01:22:54;;;;;;;2.30;1.65;;;;;;;14.12;77.18;101228.47;5004817;28;20030;-72
2021/08/09 01:25:30;;;;;;;6.53;2.10;;;;;;;14.09;77.41;101225.38;5019040;28;20036;-72
2021/08/09 01:27:58;;;;;;;5.72;2.15;;;;;;;14.10;77.29;101221.81;5004116;28;20065;-71
2021/08/09 01:30:24;;;;;;;5.80;1.83;;;;;;;14.06;77.25;101229.16;4977069;28;20065;-72
2021/08/09 01:32:51;;;;;;;5.50;1.80;;;;;;;14.08;77.12;101229.78;4984508;28;20405;-72
2021/08/09 01:35:21;;;;;;;7.13;1.58;;;;;;;14.08;77.17;101231.59;4981133;28;20079;-71
2021/08/09 01:37:53;;;;;;;9.30;2.55;;;;;;;14.06;77.36;101233.56;4998788;28;20110;-72
2021/08/09 01:40:20;;;;;;;;;;;;;;;14.02;77.45;101230.47;4995436;28;20617;-72
2021/08/09 01:42:48;;;;;;;3.97;1.83;;;;;;;14.04;77.49;101228.50;4992512;28;20020;-72
2021/08/09 01:45:16;;;;;;;5.25;1.65;;;;;;;14.01;77.88;101236.66;4989897;28;20072;-72
2021/08/09 01:47:43;;;;;;;3.35;1.85;;;;;;;13.99;77.78;101238.63;5000185;28;20034;-71
2021/08/09 01:50:11;;;;;;;4.85;1.83;;;;;;;13.95;77.83;101232.13;4988110;28;20426;-72
2021/08/09 01:52:39;;;;;;;5.43;2.63;;;;;;;13.90;78.34;101235.25;4999072;28;20032;-72
2021/08/09 01:55:08;;;;;;;5.95;2.03;;;;;;;13.88;78.38;101238.97;5011749;28;20037;-72
2021/08/09 01:57:34;;;;;;;6.68;1.83;;;;;;;13.86;78.50;101243.56;5017297;28;20018;-72
2021/08/09 02:00:01;;;;;;;7.32;1.88;;;;;;;13.86;78.68;101246.16;4991067;28;20391;-71
2021/08/09 02:02:30;;;;;;;5.72;2.30;;;;;;;13.88;78.52;101247.63;4980781;28;20025;-72
2021/08/09 02:05:09;;;;;;;6.80;1.80;;;;;;;13.89;78.60;101241.44;5003592;28;20510;-72
2021/08/09 02:07:38;;;;;;;4.35;1.92;;;;;;;13.90;78.98;101240.47;4980713;28;20113;-71
2021/08/09 02:10:10;;;;;;;9.32;2.53;;;;;;;13.92;79.14;101242.88;4981932;28;20518;-72
2021/08/09 02:12:48;;;;;;;5.03;1.60;;;;;;;13.90;79.11;101243.06;5003759;28;20040;-71
2021/08/09 02:15:18;;;;;;;4.60;1.92;;;;;;;13.91;79.30;101241.25;5014855;28;20037;-71
2021/08/09 02:17:53;;;;;;;5.60;2.28;;;;;;;13.94;78.98;101240.94;5010531;28;20048;-72
2021/08/09 02:20:27;;;;;;;6.03;1.90;;;;;;;13.97;78.82;101238.78;5000661;28;20120;-73
2021/08/09 02:22:57;;;;;;;5.78;1.95;;;;;;;13.88;79.20;101246.81;5009755;28;20104;-71
2021/08/09 02:25:27;;;;;;;6.90;2.05;;;;;;;13.88;79.22;101234.59;4986712;28;20068;-71
2021/08/09 02:28:03;;;;;;;8.25;2.17;;;;;;;13.89;79.39;101232.81;4982339;28;20029;-72
2021/08/09 02:30:30;;;;;;;4.40;2.05;;;;;;;13.89;79.44;101241.44;4979399;28;20038;-72
2021/08/09 02:32:59;;;;;;;2.80;1.73;;;;;;;13.91;79.52;101230.84;5011616;28;20140;-71
2021/08/09 02:35:26;;;;;;;5.75;1.80;;;;;;;13.93;79.63;101228.88;4996362;28;20030;-73
2021/08/09 02:37:57;;;;;;;3.63;1.90;;;;;;;13.95;79.67;101226.91;4984280;28;20492;-72
2021/08/09 02:40:24;;;;;;;5.32;1.92;;;;;;;13.95;79.63;101238.16;5006321;28;20033;-72
2021/08/09 02:42:50;;;;;;;6.45;1.65;;;;;;;13.97;79.57;101235.38;4991425;28;20029;-73
2021/08/09 02:45:16;;;;;;;6.60;1.83;;;;;;;13.99;79.44;101234.25;4988721;28;20091;-73
2021/08/09 02:47:43;;;;;;;4.82;1.92;;;;;;;14.00;79.35;101235.06;5002824;28;20438;-73
2021/08/09 02:50:11;;;;;;;3.92;1.85;;;;;;;13.99;79.37;101236.00;5003762;28;20089;-72
2021/08/09 02:52:39;;;;;;;7.80;2.75;;;;;;;13.99;79.51;101234.25;5000724;28;20260;-73
2021/08/09 02:55:06;;;;;;;6.38;2.03;;;;;;;14.00;79.62;101235.84;4976871;28;20044;-73
2021/08/09 02:57:33;;;;;;;4.88;2.42;;;;;;;14.00;79.68;101235.06;5000572;28;20063;-73
2021/08/09 02:59:58;;;;;;;4.95;1.75;;;;;;;14.01;79.71;101234.88;4999046;28;20063;-73
2021/08/09 03:02:26;;;;;;;5.80;2.28;;;;;;;14.01;79.46;101240.09;4993374;28;20112;-73
2021/08/09 03:04:53;;;;;;;7.50;2.47;;;;;;;13.99;79.71;101238.63;4992599;28;20084;-73
2021/08/09 03:07:20;;;;;;;2.78;1.40;;;;;;;13.98;79.96;101242.22;4998638;28;20278;-72
2021/08/09 03:09:46;;;;;;;6.35;1.55;;;;;;;13.99;79.76;101234.25;4991580;28;20079;-73
2021/08/09 03:12:17;;;;;;;3.67;1.88;;;;;;;14.01;79.73;101239.25;5010771;28;20225;-72
2021/08/09 03:14:48;;;;;;;4.35;1.85;;;;;;;14.01;79.83;101241.88;5005895;28;20081;-73
2021/08/09 03:17:13;;;;;;;8.43;2.15;;;;;;;14.00;79.66;101237.66;4988394;28;20092;-72
2021/08/09 03:19:39;;;;;;;4.50;1.60;;;;;;;14.02;79.57;101240.91;4993756;28;20050;-72
2021/08/09 03:22:04;;;;;;;6.95;1.95;;;;;;;14.02;79.69;101239.09;4985101;28;20037;-72
2021/08/09 03:24:32;;;;;;;6.35;1.90;;;;;;;14.03;79.74;101242.50;4972883;28;20026;-73
2021/08/09 03:27:01;;;;;;;3.22;1.67;;;;;;;14.03;79.51;101247.72;4978853;28;20032;-73
2021/08/09 03:29:26;;;;;;;5.68;1.90;;;;;;;14.07;79.38;101246.44;5002857;28;20604;-73
2021/08/09 03:31:52;;;;;;;6.20;1.92;;;;;;;14.11;79.34;101244.28;4972355;28;20028;-73
2021/08/09 03:34:18;;;;;;;5.35;2.33;;;;;;;14.08;79.17;101244.63;4990609;28;20052;-73
2021/08/09 03:36:46;;;;;;;5.72;1.70;;;;;;;14.08;79.23;101248.06;5013202;28;20029;-73
2021/08/09 03:39:13;;;;;;;6.80;2.08;;;;;;;14.07;79.27;101250.81;4983944;28;20186;-73
2021/08/09 03:41:38;;;;;;;4.72;2.00;;;;;;;14.08;79.20;101247.25;4980202;28;20076;-72
2021/08/09 03:44:05;;;;;;;6.20;1.98;;;;;;;14.07;79.18;101248.22;4999683;28;20394;-73
2021/08/09 03:46:30;;;;;;;6.82;1.83;;;;;;;14.08;79.22;101252.47;4980933;28;20026;-73
2021/08/09 03:48:56;;;;;;;5.82;2.35;;;;;;;14.09;79.36;101249.69;4985600;28;20709;-73
2021/08/09 03:51:22;;;;;;;7.03;1.85;;;;;;;14.11;79.36;101254.72;5018810;28;20443;-72
2021/08/09 03:53:47;;;;;;;6.38;1.77;;;;;;;14.12;79.22;101264.19;5006968;28;20026;-72
2021/08/09 03:56:13;;;;;;;7.00;2.10;;;;;;;14.11;79.39;101252.94;5012090;28;20030;-73
2021/08/09 03:58:38;;;;;;;5.28;1.67;;;;;;;14.09;79.54;101249.69;4996212;28;20041;-72
2021/08/09 04:01:06;;;;;;;5.90;2.17;;;;;;;14.10;79.71;101247.88;4978155;28;20022;-72
2021/08/09 04:03:31;;;;;;;5.60;2.25;;;;;;;14.12;79.54;101248.53;4972111;28;20025;-73
2021/08/09 04:05:57;;;;;;;3.90;1.73;;;;;;;14.10;79.44;101238.25;4984475;28;20143;-72
2021/08/09 04:08:22;;;;;;;3.65;2.00;;;;;;;14.13;79.40;101230.13;4962205;28;20037;-73
2021/08/09 04:10:48;;;;;;;5.28;2.00;;;;;;;14.11;79.55;101231.25;5010746;28;20407;-72
2021/08/09 04:13:13;;;;;;;5.63;2.13;;;;;;;14.11;79.53;101231.25;4997686;28;20359;-73
2021/08/09 04:15:39;;;;;;;9.57;2.40;;;;;;;14.11;79.51;101232.09;4991985;28;20030;-72
2021/08/09 04:18:06;;;;;;;5.05;1.65;;;;;;;14.10;79.72;101227.03;4986856;28;20087;-72
2021/08/09 04:20:31;;;;;;;5.20;2.10;;;;;;;14.11;79.79;101237.28;4989647;28;20053;-73
2021/08/09 04:22:57;;;;;;;8.60;1.83;;;;;;;14.11;79.59;101236.47;4976110;28;20018;-72
2021/08/09 04:25:25;;;;;;;5.78;1.60;;;;;;;14.13;79.78;101240.53;4963844;28;20041;-72
2021/08/09 04:27:51;;;;;;;8.05;2.28;;;;;;;14.11;79.73;101237.28;4993075;28;20404;-73
2021/08/09 04:30:17;;;;;;;3.60;1.60;;;;;;;14.11;80.11;101241.69;4981637;28;20040;-73
2021/08/09 04:32:46;;;;;;;5.72;2.00;;;;;;;14.12;80.27;101244.13;4991544;28;20124;-72
2021/08/09 04:35:14;;;;;;;4.07;1.98;;;;;;;14.18;79.59;101246.06;5006083;28;20117;-73
2021/08/09 04:37:43;;;;;;;4.20;2.22;;;;;;;14.17;79.44;101251.47;4987225;28;20479;-72
2021/08/09 04:40:10;;;;;;;4.45;1.88;;;;;;;14.15;79.64;101253.41;4993369;28;20038;-72
2021/08/09 04:42:37;;;;;;;10.15;1.95;;;;;;;14.14;79.76;101257.00;5002347;28;20112;-73
2021/08/09 04:45:04;;;;;;;6.20;2.22;;;;;;;14.15;79.75;101248.19;4979553;28;20042;-73
2021/08/09 04:47:30;;;;;;;13.63;2.17;;;;;;;14.18;79.63;101255.66;4993278;28;20026;-72
2021/08/09 04:49:56;;;;;;;5.85;1.88;;;;;;;14.16;79.60;101258.44;4991489;28;20030;-73
2021/08/09 04:52:22;;;;;;;6.07;2.17;;;;;;;14.15;79.38;101253.41;4975489;28;20034;-73
2021/08/09 04:54:48;;;;;;;7.72;2.03;;;;;;;14.30;78.86;101259.56;5008465;28;20064;-73
2021/08/09 04:57:13;;;;;;;6.78;1.77;;;;;;;14.26;78.71;101258.28;5008148;28;20037;-73
2021/08/09 04:59:39;;;;;;;7.80;2.38;;;;;;;14.38;78.27;101264.72;4992010;28;20022;-74
2021/08/09 05:02:04;;;;;;;9.40;2.10;;;;;;;14.31;78.23;101268.19;5002943;28;20046;-73
2021/08/09 05:04:30;;;;;;;6.15;2.92;;;;;;;14.21;78.93;101257.94;4968248;28;20033;-73
2021/08/09 05:06:55;;;;;;;10.75;2.30;;;;;;;14.23;78.88;101260.41;5016056;28;20037;-73
2021/08/09 05:09:22;;;;;;;5.68;2.50;;;;;;;14.18;78.74;101266.94;5001929;28;20435;-73
2021/08/09 05:11:47;;;;;;;7.32;2.33;;;;;;;14.21;78.55;101271.81;4990078;28;20030;-73
2021/08/09 05:14:17;;;;;;;4.43;2.00;;;;;;;14.23;78.88;101265.63;4993888;28;20392;-73
2021/08/09 05:16:43;;;;;;;6.15;2.40;;;;;;;14.20;78.98;101275.41;5001349;28;20037;-73
2021/08/09 05:19:09;;;;;;;4.60;1.90;;;;;;;14.28;79.09;101268.50;5006273;28;20030;-73
2021/08/09 05:21:35;;;;;;;5.45;2.20;;;;;;;14.24;79.04;101270.66;5013444;28;20560;-73
2021/08/09 05:24:02;;;;;;;8.27;1.98;;;;;;;14.30;79.01;101267.38;4990594;28;20084;-73
2021/08/09 05:26:28;;;;;;;9.10;2.22;;;;;;;14.44;78.73;101267.66;5014489;28;20025;-73
2021/08/09 05:28:55;;;;;;;7.43;2.03;;;;;;;14.39;78.81;101268.97;4992739;28;20080;-74
2021/08/09 05:31:21;;;;;;;9.32;2.53;;;;;;;14.31;79.40;101263.78;4987153;28;20029;-73
2021/08/09 05:33:46;;;;;;;5.50;1.83;;;;;;;14.31;79.81;101269.00;4992242;28;20053;-73
2021/08/09 05:36:12;;;;;;;7.18;2.35;;;;;;;14.30;79.81;101269.19;4999171;28;20142;-73
2021/08/09 05:38:38;;;;;;;6.85;1.92;;;;;;;14.31;79.78;101263.78;5000192;28;20476;-73
2021/08/09 05:41:05;;;;;;;10.82;2.78;;;;;;;14.37;79.69;101267.50;5004254;28;20092;-73
2021/08/09 05:43:31;;;;;;;5.75;1.50;;;;;;;14.31;79.99;101270.78;4975140;28;20084;-73
2021/08/09 05:45:59;;;;;;;7.15;2.72;;;;;;;14.30;79.96;101264.78;4968946;28;20488;-74
2021/08/09 05:48:25;;;;;;;6.40;1.90;;;;;;;14.35;79.85;101269.47;5010903;28;20112;-73
2021/08/09 05:50:51;;;;;;;11.55;2.28;;;;;;;14.32;79.74;101264.59;4978474;28;20037;-73
2021/08/09 05:53:17;;;;;;;5.45;1.90;;;;;;;14.30;79.83;101263.97;4996292;28;20033;-73
2021/08/09 05:55:42;;;;;;;5.57;1.85;;;;;;;14.38;79.58;101267.34;4999986;28;20030;-73
2021/08/09 05:58:09;;;;;;;6.97;2.22;;;;;;;14.34;79.57;101262.63;5006603;28;20033;-73
2021/08/09 06:00:36;;;;;;;12.57;2.45;;;;;;;14.47;79.15;101269.94;4987493;28;20033;-73
2021/08/09 06:03:04;;;;;;;7.30;2.22;;;;;;;14.57;78.61;101266.13;4987869;28;20052;-74
2021/08/09 06:05:45;;;;;;;4.75;2.55;;;;;;;14.56;78.78;101274.09;4991290;28;20030;-73
2021/08/09 06:08:13;;;;;;;8.45;2.25;;;;;;;14.40;79.38;101278.41;4998236;28;20046;-73
2021/08/09 06:10:39;;;;;;;6.22;2.28;;;;;;;14.33;79.46;101277.47;4986045;28;20108;-73
2021/08/09 06:13:08;;;;;;;3.60;1.80;;;;;;;14.32;79.56;101275.84;4989656;28;20030;-73
2021/08/09 06:15:33;;;;;;;7.57;2.38;;;;;;;14.35;79.55;101280.75;4991466;28;20034;-73
2021/08/09 06:17:59;;;;;;;5.43;2.00;;;;;;;14.43;79.24;101282.50;4986927;28;20014;-75
2021/08/09 06:20:27;;;;;;;8.45;1.92;;;;;;;14.41;79.24;101287.88;4985182;28;20032;-73
2021/08/09 06:22:53;;;;;;;4.78;1.90;;;;;;;14.42;79.41;101288.69;4997888;28;20031;-73
2021/08/09 06:25:18;;;;;;;4.32;2.47;;;;;;;14.53;78.92;101292.72;4990710;28;20037;-73
2021/08/09 06:27:46;;;;;;;3.15;2.10;;;;;;;14.54;79.07;101292.56;4988199;28;20022;-73
2021/08/09 06:30:12;;;;;;;5.97;2.17;;;;;;;14.51;79.11;101294.69;4993049;28;20030;-73
2021/08/09 06:32:37;;;;;;;7.97;2.88;;;;;;;14.65;78.81;101291.38;4980239;28;20029;-72
2021/08/09 06:35:04;;;;;;;7.50;2.22;;;;;;;14.74;78.59;101289.56;5008470;28;20056;-72
2021/08/09 06:37:30;;;;;;;9.50;2.50;;;;;;;14.74;78.40;101294.78;4978074;28;20072;-72
2021/08/09 06:39:58;;;;;;;5.03;2.20;;;;;;;14.76;78.64;101293.59;5004592;28;20037;-72
2021/08/09 06:42:23;;;;;;;6.55;2.67;;;;;;;14.81;78.40;101297.53;4982671;28;20072;-73
2021/08/09 06:45:06;;;;;;;8.23;2.40;;;;;;;14.81;78.45;101306.16;4998321;28;20037;-72
2021/08/09 06:47:31;;;;;;;6.32;2.35;;;;;;;14.76;78.79;101303.25;5006053;28;20033;-72
2021/08/09 06:49:57;;;;;;;11.85;2.97;;;;;;;14.88;78.77;101295.81;4994649;28;20473;-72
2021/08/09 06:52:23;;;;;;;8.23;2.35;;;;;;;14.90;78.66;101301.69;5002777;28;20045;-72
2021/08/09 06:54:50;;;;;;;6.13;2.10;;;;;;;14.99;78.72;101298.88;5002667;28;20595;-72
2021/08/09 06:57:18;;;;;;;6.57;2.70;;;;;;;15.19;77.87;101296.59;4997586;28;20057;-72
2021/08/09 06:59:45;;;;;;;10.77;2.22;;;;;;;15.40;76.81;101299.56;4990731;28;20075;-73
2021/08/09 07:02:11;;;;;;;5.43;2.15;;;;;;;15.55;76.01;101289.97;4994848;28;20529;-73
2021/08/09 07:04:38;;;;;;;6.97;2.00;;;;;;;15.65;75.65;101295.78;4995780;28;20105;-73
2021/08/09 07:07:03;;;;;;;4.05;1.85;;;;;;;15.63;75.53;101295.09;4993655;28;20415;-72
2021/08/09 07:09:30;;;;;;;6.88;2.10;;;;;;;15.67;75.35;101296.41;5006926;28;20383;-73
2021/08/09 07:11:56;;;;;;;8.07;2.50;;;;;;;15.70;75.76;101298.66;4982837;28;20237;-72
2021/08/09 07:14:22;;;;;;;7.25;2.17;;;;;;;15.76;75.90;101300.59;4993000;28;20037;-72
2021/08/09 07:16:50;;;;;;;7.30;2.00;;;;;;;16.08;74.50;101303.03;4983205;28;20037;-74
2021/08/09 07:19:16;;;;;;;8.88;1.90;;;;;;;16.81;71.21;101298.72;4998308;28;20444;-72
2021/08/09 07:21:42;;;;;;;5.15;2.10;;;;;;;17.59;68.97;101292.81;4973117;28;20124;-72
2021/08/09 07:24:07;;;;;;;9.75;2.05;;;;;;;18.01;67.56;101288.50;4991306;28;20416;-73
2021/08/09 07:26:33;;;;;;;6.63;1.85;;;;;;;18.62;65.59;101288.53;5014515;28;20372;-74
2021/08/09 07:29:00;;;;;;;7.80;2.17;;;;;;;19.32;64.07;101290.91;4994129;28;20017;-73
2021/08/09 07:31:25;;;;;;;7.15;1.55;;;;;;;19.57;61.76;101285.03;4989711;28;20030;-73
2021/08/09 07:33:51;;;;;;;3.60;1.67;;;;;;;19.48;61.67;101292.34;5001674;28;20017;-73
2021/08/09 07:36:17;;;;;;;6.03;1.40;;;;;;;19.34;61.77;101293.34;4995972;28;20071;-72
2021/08/09 07:38:42;;;;;;;4.15;1.35;;;;;;;19.00;61.82;101293.31;4981204;28;20036;-72
2021/08/09 07:41:09;;;;;;;4.32;1.75;;;;;;;18.84;62.96;101294.50;5001483;28;20041;-72
2021/08/09 07:43:36;;;;;;;5.72;1.60;;;;;;;18.71;62.16;101288.38;5001002;28;20479;-74
2021/08/09 07:46:02;;;;;;;3.65;1.30;;;;;;;18.85;63.95;101290.88;5011047;28;20079;-73
2021/08/09 07:48:28;;;;;;;6.55;1.83;;;;;;;18.91;63.88;101291.91;4991922;28;20029;-73
2021/08/09 07:50:54;;;;;;;4.03;1.50;;;;;;;18.83;62.92;101297.31;4986899;28;20029;-73
2021/08/09 07:53:19;;;;;;;10.73;1.40;;;;;;;18.75;62.36;101298.28;4987307;28;20426;-73
2021/08/09 07:55:45;;;;;;;6.18;2.00;;;;;;;18.52;62.58;101285.50;4990268;28;20026;-74
2021/08/09 07:58:10;;;;;;;5.68;1.35;;;;;;;18.59;62.82;101281.06;4999229;28;20526;-72
2021/08/09 08:00:38;;;;;;;7.55;1.55;;;;;;;19.14;60.50;101288.91;5006761;28;20024;-72
2021/08/09 08:03:04;;;;;;;4.38;1.30;;;;;;;19.41;58.63;101286.28;5007905;28;20038;-72
2021/08/09 08:05:30;;;;;;;4.28;1.65;;;;;;;19.49;61.21;101287.88;4984171;28;20068;-73
2021/08/09 08:07:56;;;;;;;5.78;1.17;;;;;;;19.39;60.62;101286.47;4991384;28;20030;-72
2021/08/09 08:10:23;;;;;;;4.68;1.30;;;;;;;19.24;59.59;101291.13;4989234;28;20032;-74
2021/08/09 08:12:49;;;;;;;3.05;1.20;;;;;;;19.37;60.10;101295.59;4979044;28;20035;-73
2021/08/09 08:15:16;;;;;;;5.65;1.40;;;;;;;19.45;59.83;101284.84;5001044;28;20052;-73
2021/08/09 08:17:42;;;;;;;7.70;1.27;;;;;;;19.47;61.10;101295.16;4986768;28;20488;-74
2021/08/09 08:20:09;;;;;;;9.55;1.23;;;;;;;19.58;59.70;101300.63;4996483;28;20022;-73
2021/08/09 08:22:36;;;;;;;3.75;1.55;;;;;;;20.19;59.40;101294.28;4976074;28;20081;-72
2021/08/09 08:25:03;;;;;;;6.25;1.75;;;;;;;20.91;56.47;101286.25;4992072;28;20028;-72
2021/08/09 08:27:28;;;;;;;6.45;1.10;;;;;;;21.66;54.68;101287.28;5018135;28;20026;-73
2021/08/09 08:29:56;;;;;;;6.60;1.58;;;;;;;22.00;53.66;101282.47;4987376;28;20092;-73
2021/08/09 08:32:21;;;;;;;4.43;1.52;;;;;;;22.10;53.59;101282.78;5000340;28;20759;-73
2021/08/09 08:34:48;;;;;;;4.22;0.95;;;;;;;22.38;51.79;101281.44;5004242;28;20018;-75
2021/08/09 08:37:15;;;;;;;4.03;1.38;;;;;;;22.28;53.14;101282.81;5000016;28;20113;-74
2021/08/09 08:39:41;;;;;;;2.85;1.33;;;;;;;22.32;53.00;101291.06;4999626;28;20129;-74
2021/08/09 08:42:07;;;;;;;3.17;1.35;;;;;;;22.37;52.41;101282.47;4993839;28;20558;-73
2021/08/09 08:44:33;;;;;;;5.70;1.30;;;;;;;22.26;52.39;101284.81;4999943;28;20030;-73
2021/08/09 08:46:59;;;;;;;3.63;1.05;;;;;;;22.49;53.02;101278.03;4992990;28;20119;-74
2021/08/09 08:49:26;;;;;;;6.35;1.40;;;;;;;22.76;49.19;101278.50;4993882;28;20029;-74
2021/08/09 08:51:53;;;;;;;7.03;1.00;;;;;;;23.12;50.37;101282.06;4996494;28;20464;-73
2021/08/09 08:54:22;;;;;;;3.67;0.80;;;;;;;23.45;48.09;101283.31;4995487;28;20034;-72
2021/08/09 08:56:47;;;;;;;3.30;0.80;;;;;;;23.58;47.70;101277.81;5006114;28;20052;-73
2021/08/09 08:59:15;;;;;;;2.42;0.88;;;;;;;24.03;48.19;101271.09;4998098;28;20030;-74
2021/08/09 09:01:43;;;;;;;4.40;0.95;;;;;;;24.19;47.15;101280.16;4994839;28;20478;-75
2021/08/09 09:04:19;;;;;;;2.88;1.50;;;;;;;23.70;48.10;101273.31;5011408;28;20034;-76
2021/08/09 09:06:44;;;;;;;6.55;1.15;;;;;;;23.15;47.77;101275.50;5014264;28;20117;-75
2021/08/09 09:09:23;;;;;;;4.75;1.10;;;;;;;22.71;48.74;101288.94;4996634;28;20014;-74
2021/08/09 09:11:49;;;;;;;5.80;1.23;;;;;;;22.69;49.85;101291.00;4999366;28;20043;-75
2021/08/09 09:14:24;;;;;;;4.05;1.20;;;;;;;23.10;49.72;101276.97;5014536;28;20036;-74
2021/08/09 09:16:50;;;;;;;7.63;1.40;;;;;;;22.98;50.70;101281.44;5015228;28;20502;-73
2021/08/09 09:19:36;;;;;;;7.32;1.50;;;;;;;22.53;50.96;101285.31;5012645;28;20041;-74
2021/08/09 09:22:18;;;;;;;2.85;0.85;;;;;;;22.25;51.21;101280.59;5001945;28;20052;-73
2021/08/09 09:24:52;;;;;;;5.22;1.50;;;;;;;21.69;52.13;101286.88;4999893;28;20140;-76
2021/08/09 09:27:32;;;;;;;6.13;1.00;;;;;;;21.42;52.70;101291.53;5003601;28;20117;-74
2021/08/09 09:29:59;;;;;;;6.68;1.17;;;;;;;21.54;53.27;101282.72;4972081;28;20037;-75
2021/08/09 09:32:25;;;;;;;6.50;1.42;;;;;;;21.54;53.20;101292.47;4998683;28;20026;-74
2021/08/09 09:34:54;;;;;;;3.70;0.70;;;;;;;21.42;53.79;101289.72;4989617;28;20527;-73
2021/08/09 09:37:33;;;;;;;5.05;1.23;;;;;;;21.46;53.61;101288.28;5004088;28;20041;-74
2021/08/09 09:40:15;;;;;;;3.97;0.90;;;;;;;21.29;51.66;101295.91;4990333;28;20045;-75
2021/08/09 09:42:42;;;;;;;6.28;1.52;;;;;;;21.35;53.07;101302.16;5010327;28;20033;-74
2021/08/09 09:45:30;;;;;;;4.35;1.30;;;;;;;21.22;53.04;101291.72;5016636;28;20064;-74
2021/08/09 09:48:05;;;;;;;4.55;0.90;;;;;;;20.93;52.25;101297.38;5000617;28;20099;-73
2021/08/09 09:50:32;;;;;;;7.07;1.35;;;;;;;20.89;52.20;101298.84;5011815;28;20038;-75
2021/08/09 09:53:13;;;;;;;3.95;1.00;;;;;;;20.95;52.34;101305.06;5009889;28;20107;-75
2021/08/09 09:55:41;;;;;;;4.38;1.00;;;;;;;20.90;51.98;101295.16;5011681;28;20036;-74
2021/08/09 09:58:07;;;;;;;6.35;1.05;;;;;;;20.85;51.69;101296.81;5012797;28;20049;-75
2021/08/09 10:00:33;;;;;;;5.80;1.13;;;;;;;21.01;51.61;101298.94;5012629;28;20038;-74
2021/08/09 10:02:59;;;;;;;7.05;1.17;;;;;;;21.25;51.10;101304.44;5002265;28;20402;-76
2021/08/09 10:05:24;;;;;;;7.38;1.27;;;;;;;21.30;50.65;101300.13;4991159;28;20022;-75
2021/08/09 10:07:53;;;;;;;4.05;1.10;;;;;;;21.87;50.25;101297.44;5007211;28;20392;-75
2021/08/09 10:10:23;;;;;;;5.43;1.00;;;;;;;21.92;50.38;101294.94;4978703;28;20396;-75
2021/08/09 10:12:51;;;;;;;6.47;1.73;;;;;;;22.15;51.11;101302.22;4982694;28;20033;-75
2021/08/09 10:15:19;;;;;;;5.43;0.95;;;;;;;21.94;49.19;101305.28;4999145;28;20041;-75
2021/08/09 10:17:46;;;;;;;9.85;1.35;;;;;;;21.82;50.32;101307.84;5013970;28;20486;-76
2021/08/09 10:20:13;;;;;;;4.60;1.30;;;;;;;21.52;49.78;101305.09;4992527;28;20479;-76
2021/08/09 10:22:39;;;;;;;6.78;1.05;;;;;;;21.55;50.54;101316.00;5004262;28;20040;-76
2021/08/09 10:25:06;;;;;;;4.63;0.90;;;;;;;21.61;51.28;101313.53;5006847;28;20497;-75
2021/08/09 10:27:47;;;;;;;3.20;0.75;;;;;;;21.48;49.85;101309.97;5003774;28;20029;-75
2021/08/09 10:30:14;;;;;;;6.97;1.33;;;;;;;21.62;49.47;101307.22;5008400;28;20510;-74
2021/08/09 10:32:45;;;;;;;3.47;1.10;;;;;;;21.70;50.07;101307.75;4987786;28;20053;-74
2021/08/09 10:35:30;;;;;;;4.03;1.27;;;;;;;21.49;49.64;101306.34;4989292;28;20048;-75
2021/08/09 10:38:15;;;;;;;2.08;0.70;;;;;;;21.49;49.65;101293.13;4971510;28;20030;-75
2021/08/09 10:40:45;;;;;;;3.53;1.00;;;;;;;21.37;49.40;101305.38;5014239;28;20045;-75
2021/08/09 10:43:11;;;;;;;6.80;1.20;;;;;;;21.53;49.67;101312.78;5009945;28;20053;-76
2021/08/09 10:45:41;;;;;;;5.20;1.10;;;;;;;21.43;51.09;101314.25;5013359;28;20034;-75
2021/08/09 10:48:09;;;;;;;7.03;1.15;;;;;;;21.53;50.28;101312.78;5009784;28;20034;-75
2021/08/09 10:50:39;;;;;;;6.43;1.15;;;;;;;21.42;50.77;101323.19;5018304;28;20026;-74
2021/08/09 10:53:24;;;;;;;2.33;1.27;;;;;;;21.59;52.11;101319.03;5004940;28;20038;-75
2021/08/09 10:55:50;;;;;;;6.55;1.25;;;;;;;21.92;52.28;101310.75;4980418;28;20046;-74
2021/08/09 10:58:40;;;;;;;3.33;1.02;;;;;;;22.08;50.08;101309.41;4989240;28;20037;-74
2021/08/09 11:01:06;;;;;;;3.60;1.60;;;;;;;21.95;50.25;101305.06;5001710;28;20121;-75
2021/08/09 11:03:31;;;;;;;3.88;0.85;;;;;;;21.86;50.23;101306.38;4974407;28;20029;-75
2021/08/09 11:05:57;;;;;;;5.57;1.23;;;;;;;21.93;50.08;101306.31;4986599;28;20042;-74
2021/08/09 11:08:22;;;;;;;2.88;0.88;;;;;;;21.75;49.96;101317.66;5006785;28;20021;-74
2021/08/09 11:10:55;;;;;;;4.57;1.30;;;;;;;21.91;49.78;101308.38;4991034;28;20117;-74
2021/08/09 11:13:40;;;;;;;4.95;1.00;;;;;;;22.11;50.16;101314.25;4969159;28;20487;-75
2021/08/09 11:16:06;;;;;;;5.30;0.95;;;;;;;21.97;49.71;101299.56;4986484;28;20065;-76
2021/08/09 11:18:35;;;;;;;5.28;1.73;;;;;;;22.02;49.84;101310.28;4994504;28;20496;-75
2021/08/09 11:21:03;;;;;;;5.03;0.90;;;;;;;21.98;49.52;101301.16;4995988;28;20034;-76
2021/08/09 11:23:39;;;;;;;3.83;1.23;;;;;;;22.08;49.49;101305.97;4996763;28;20030;-76
2021/08/09 11:26:17;;;;;;;3.47;1.00;;;;;;;22.11;49.66;101311.59;4967806;28;20061;-74
2021/08/09 11:28:42;;;;;;;7.68;1.85;;;;;;;22.04;48.57;101307.41;4980616;28;20030;-75